KOYM

St Marys Municipal Airport

St Marys, Pennsylvania, USA
METAR KOYM 201715Z AUTO 26008KT 210V280 10SM SCT032 SCT038 SCT070 11/05 A2970 RMK AO2
Observed Flight Rules
Oct-20 @ 17:15 UTC (30 minutes ago) Visual Flight Rules
Wind Visibility Clouds
260° at 8 knots 10 miles
  • Scattered at 3,200' AGL
  • Scattered at 3,800' AGL
  • Scattered at 7,000' AGL
Temperatures Readings
Current 11°C / 52°F
Dewpoint 5°C / 41°F
Humidity 67%
Altimeter 29.7" Hg
Pressure 1006 hPa
Elevation 590
METAR KOYM 201715Z AUTO 26008KT 210V280 10SM SCT032 SCT038 SCT070 11/05 A2970 RMK AO2
Observed Flight Rules
Oct-20 @ 17:15 UTC
(30 minutes ago)
VFR
Wind Visibility
260° at 8 knots 10 miles
Clouds
  • Scattered at 3,200' AGL
  • Scattered at 3,800' AGL
  • Scattered at 7,000' AGL
Temperature Dewpoint
11°C / 52°F 5°C / 41°F
Humidity Altimeter Pressure
67% 29.7" Hg 1006 hPa